Wetterdaten: Woche 07.08.17 - 13.08.17 (KW32)
Datum Zeit Temp. I. Temp. A. Feuchte I. Feuchte A. Luftdruck Regen Wind Richtung Sonnenschein UV Solar Taupunkt Windchill Windben
07.08.2017 00:00 25,7 C 12,0 C 49 % 88 % 1022,4 hPa 0,0 l/m 0,0 km/h (0 Bft) N 0,00 h 0,0 UV-I 0 W/m 10,2 C 12,0 C 0,0 km/h (0 Bft)
07.08.2017 01:00 25,6 C 11,2 C 48 % 90 % 1022,2 hPa 0,0 l/m 0,0 km/h (0 Bft) N 0,00 h 0,0 UV-I 0 W/m 9,6 C 11,2 C 0,0 km/h (0 Bft)
07.08.2017 02:00 25,4 C 10,6 C 48 % 90 % 1022,2 hPa 0,0 l/m 0,0 km/h (0 Bft) N 0,00 h 0,0 UV-I 0 W/m 9,1 C 10,6 C 0,0 km/h (0 Bft)
07.08.2017 03:00 25,4 C 9,9 C 49 % 92 % 1022,2 hPa 0,0 l/m 0,0 km/h (0 Bft) N 0,00 h 0,0 UV-I 0 W/m 8,7 C 9,9 C 0,0 km/h (0 Bft)
07.08.2017 04:00 25,3 C 9,9 C 49 % 93 % 1022,1 hPa 0,0 l/m 0,0 km/h (0 Bft) N 0,00 h 0,0 UV-I 0 W/m 8,9 C 9,9 C 0,0 km/h (0 Bft)
07.08.2017 05:00 25,2 C 10,1 C 49 % 93 % 1022,0 hPa 0,0 l/m 0,0 km/h (0 Bft) N 0,00 h 0,0 UV-I 5 W/m 9,0 C 10,1 C 0,0 km/h (0 Bft)
07.08.2017 06:00 25,2 C 9,8 C 49 % 93 % 1021,8 hPa 0,0 l/m 0,0 km/h (0 Bft) N 0,00 h 0,0 UV-I 23 W/m 8,7 C 9,8 C 0,0 km/h (0 Bft)
07.08.2017 07:00 25,4 C 11,5 C 49 % 91 % 1021,7 hPa 0,0 l/m 0,0 km/h (0 Bft) N 0,23 h 0,6 UV-I 93 W/m 10,1 C 11,5 C 0,0 km/h (0 Bft)
07.08.2017 08:00 25,6 C 16,4 C 49 % 74 % 1021,4 hPa 0,0 l/m 0,0 km/h (0 Bft) N 1,00 h 1,2 UV-I 364 W/m 11,8 C 16,4 C 0,0 km/h (0 Bft)
07.08.2017 09:00 25,0 C 18,5 C 45 % 61 % 1021,2 hPa 0,0 l/m 2,4 km/h (1 Bft) SO 1,00 h 2,2 UV-I 546 W/m 11,0 C 18,2 C 3,8 km/h (1 Bft)
07.08.2017 10:00 24,5 C 19,9 C 44 % 57 % 1020,9 hPa 0,0 l/m 7,0 km/h (2 Bft) SO 1,00 h 3,8 UV-I 685 W/m 11,0 C 19,2 C 12,4 km/h (3 Bft)
07.08.2017 11:00 24,7 C 21,2 C 43 % 48 % 1020,5 hPa 0,0 l/m 6,9 km/h (2 Bft) SO 0,83 h 4,8 UV-I 699 W/m 9,8 C 20,6 C 11,2 km/h (2 Bft)
07.08.2017 12:00 25,1 C 22,1 C 42 % 46 % 1020,0 hPa 0,0 l/m 2,8 km/h (1 Bft) O-NO 1,00 h 5,5 UV-I 786 W/m 10,0 C 22,0 C 6,8 km/h (2 Bft)
07.08.2017 13:00 25,2 C 23,0 C 41 % 43 % 1019,3 hPa 0,0 l/m 3,4 km/h (1 Bft) O-SO 1,00 h 5,8 UV-I 805 W/m 9,7 C 22,8 C 6,9 km/h (2 Bft)
07.08.2017 14:00 25,3 C 23,8 C 40 % 40 % 1018,7 hPa 0,0 l/m 4,8 km/h (1 Bft) SO 1,00 h 5,5 UV-I 796 W/m 9,2 C 23,5 C 9,1 km/h (2 Bft)
07.08.2017 15:00 25,5 C 24,2 C 38 % 36 % 1018,2 hPa 0,0 l/m 3,3 km/h (1 Bft) O-SO 1,00 h 4,4 UV-I 716 W/m 8,4 C 24,1 C 7,8 km/h (2 Bft)
07.08.2017 16:00 25,6 C 24,3 C 37 % 34 % 1017,7 hPa 0,0 l/m 2,8 km/h (1 Bft) O-SO 1,00 h 3,1 UV-I 592 W/m 7,6 C 24,2 C 6,9 km/h (2 Bft)
07.08.2017 17:00 25,6 C 24,2 C 36 % 33 % 1017,2 hPa 0,0 l/m 4,2 km/h (1 Bft) SO 1,00 h 1,8 UV-I 445 W/m 7,1 C 24,1 C 9,1 km/h (2 Bft)
07.08.2017 18:00 25,4 C 23,6 C 36 % 35 % 1016,8 hPa 0,0 l/m 2,6 km/h (1 Bft) O-SO 0,23 h 1,0 UV-I 96 W/m 7,1 C 23,6 C 7,3 km/h (2 Bft)
07.08.2017 19:00 25,5 C 22,8 C 38 % 36 % 1016,4 hPa 0,0 l/m 1,4 km/h (1 Bft) O-SO 0,00 h 0,0 UV-I 25 W/m 7,0 C 22,8 C 4,7 km/h (1 Bft)
07.08.2017 20:00 25,6 C 20,5 C 39 % 45 % 1016,3 hPa 0,0 l/m 0,0 km/h (0 Bft) N 0,00 h 0,0 UV-I 11 W/m 8,1 C 20,5 C 0,1 km/h (0 Bft)
07.08.2017 21:00 25,7 C 17,3 C 40 % 59 % 1016,5 hPa 0,0 l/m 0,0 km/h (0 Bft) N 0,00 h 0,0 UV-I 0 W/m 9,3 C 17,3 C 0,0 km/h (0 Bft)
07.08.2017 22:00 25,8 C 15,2 C 42 % 67 % 1016,4 hPa 0,0 l/m 0,0 km/h (0 Bft) N 0,00 h 0,0 UV-I 0 W/m 9,2 C 15,2 C 0,0 km/h (0 Bft)
07.08.2017 23:00 25,8 C 14,6 C 43 % 69 % 1016,2 hPa 0,0 l/m 0,0 km/h (0 Bft) N 0,00 h 0,0 UV-I 0 W/m 9,1 C 14,6 C 0,0 km/h (0 Bft)
08.08.2017 00:00 25,5 C 15,7 C 43 % 67 % 1015,9 hPa 0,0 l/m 0,0 km/h (0 Bft) N 0,00 h 0,0 UV-I 0 W/m 9,7 C 15,7 C 0,2 km/h (0 Bft)
08.08.2017 01:00 25,3 C 15,6 C 43 % 67 % 1015,5 hPa 0,0 l/m 0,3 km/h (0 Bft) O 0,00 h 0,0 UV-I 0 W/m 9,6 C 15,6 C 1,0 km/h (0 Bft)
08.08.2017 02:00 25,2 C 14,6 C 43 % 70 % 1014,7 hPa 0,0 l/m 1,4 km/h (1 Bft) O 0,00 h 0,0 UV-I 0 W/m 9,3 C 14,6 C 3,3 km/h (1 Bft)
08.08.2017 03:00 25,3 C 14,0 C 44 % 74 % 1014,3 hPa 0,0 l/m 0,0 km/h (0 Bft) O-NO 0,00 h 0,0 UV-I 0 W/m 9,3 C 14,0 C 0,1 km/h (0 Bft)
08.08.2017 04:00 25,2 C 13,7 C 44 % 76 % 1013,7 hPa 0,0 l/m 2,6 km/h (1 Bft) O-NO 0,00 h 0,0 UV-I 0 W/m 9,6 C 13,7 C 5,3 km/h (1 Bft)
08.08.2017 05:00 25,0 C 13,7 C 44 % 77 % 1013,3 hPa 0,0 l/m 3,4 km/h (1 Bft) O-NO 0,00 h 0,0 UV-I 5 W/m 9,9 C 13,7 C 6,3 km/h (2 Bft)
08.08.2017 06:00 24,9 C 13,7 C 45 % 79 % 1012,7 hPa 0,0 l/m 2,6 km/h (1 Bft) O-NO 0,00 h 0,0 UV-I 14 W/m 10,1 C 13,6 C 6,5 km/h (2 Bft)
08.08.2017 07:00 24,8 C 14,9 C 45 % 78 % 1012,3 hPa 0,0 l/m 2,4 km/h (1 Bft) N 0,62 h 0,6 UV-I 168 W/m 11,0 C 14,8 C 3,4 km/h (1 Bft)
08.08.2017 08:00 24,8 C 17,3 C 46 % 71 % 1011,9 hPa 0,0 l/m 3,6 km/h (1 Bft) O-NO 1,00 h 1,3 UV-I 388 W/m 12,0 C 17,1 C 6,7 km/h (2 Bft)
08.08.2017 09:00 25,1 C 19,6 C 46 % 65 % 1011,4 hPa 0,0 l/m 4,4 km/h (1 Bft) N 1,00 h 2,3 UV-I 510 W/m 12,8 C 19,3 C 5,6 km/h (1 Bft)
08.08.2017 10:00 24,9 C 20,3 C 47 % 63 % 1011,0 hPa 0,0 l/m 5,4 km/h (1 Bft) O-SO 1,00 h 3,3 UV-I 524 W/m 13,1 C 19,7 C 7,1 km/h (2 Bft)
08.08.2017 11:00 24,9 C 22,1 C 47 % 59 % 1010,4 hPa 0,0 l/m 5,8 km/h (1 Bft) SO 1,00 h 4,6 UV-I 678 W/m 13,8 C 21,8 C 10,7 km/h (2 Bft)
08.08.2017 12:00 25,0 C 23,7 C 48 % 56 % 1010,3 hPa 0,0 l/m 6,3 km/h (2 Bft) O-SO 1,00 h 5,7 UV-I 766 W/m 14,3 C 23,2 C 10,0 km/h (2 Bft)
08.08.2017 13:00 25,3 C 25,0 C 49 % 52 % 1009,7 hPa 0,0 l/m 6,2 km/h (2 Bft) O-SO 1,00 h 6,0 UV-I 767 W/m 14,4 C 24,7 C 13,3 km/h (3 Bft)
08.08.2017 14:00 25,7 C 26,4 C 49 % 50 % 1009,4 hPa 0,0 l/m 4,7 km/h (1 Bft) SO 1,00 h 5,8 UV-I 805 W/m 14,9 C 26,2 C 9,1 km/h (2 Bft)
08.08.2017 15:00 26,0 C 27,5 C 49 % 47 % 1009,5 hPa 0,0 l/m 3,9 km/h (1 Bft) SO 1,00 h 4,6 UV-I 698 W/m 15,1 C 27,4 C 7,7 km/h (2 Bft)
08.08.2017 16:00 26,4 C 28,3 C 48 % 44 % 1009,2 hPa 0,0 l/m 3,6 km/h (1 Bft) SO 1,00 h 3,1 UV-I 562 W/m 14,8 C 28,3 C 8,0 km/h (2 Bft)
08.08.2017 17:00 26,6 C 27,8 C 47 % 43 % 1009,1 hPa 0,0 l/m 4,4 km/h (1 Bft) S-SO 0,43 h 1,4 UV-I 243 W/m 14,2 C 27,7 C 6,0 km/h (2 Bft)
08.08.2017 18:00 26,7 C 26,6 C 47 % 49 % 1009,3 hPa 0,0 l/m 4,2 km/h (1 Bft) W-SW 0,00 h 0,5 UV-I 57 W/m 14,9 C 26,4 C 6,2 km/h (2 Bft)
08.08.2017 19:00 26,5 C 24,3 C 49 % 56 % 1010,2 hPa 0,0 l/m 7,9 km/h (2 Bft) N 0,00 h 0,0 UV-I 18 W/m 15,0 C 23,7 C 9,9 km/h (2 Bft)
08.08.2017 20:00 26,2 C 21,5 C 50 % 68 % 1011,2 hPa 0,2 l/m 1,8 km/h (1 Bft) SW 0,00 h 0,0 UV-I 5 W/m 15,3 C 21,5 C 3,2 km/h (1 Bft)
08.08.2017 21:00 25,8 C 18,4 C 54 % 87 % 1012,4 hPa 2,8 l/m 2,1 km/h (1 Bft) W-SW 0,00 h 0,0 UV-I 0 W/m 16,2 C 18,3 C 5,4 km/h (1 Bft)
08.08.2017 22:00 25,6 C 16,7 C 55 % 93 % 1013,3 hPa 1,8 l/m 3,6 km/h (1 Bft) S-SO 0,00 h 0,0 UV-I 0 W/m 15,5 C 16,6 C 7,7 km/h (2 Bft)
08.08.2017 23:00 25,6 C 16,2 C 54 % 93 % 1013,4 hPa 0,8 l/m 0,0 km/h (0 Bft) SO 0,00 h 0,0 UV-I 0 W/m 15,1 C 16,2 C 0,3 km/h (0 Bft)
09.08.2017 00:00 25,4 C 16,1 C 54 % 95 % 1014,5 hPa 4,0 l/m 1,3 km/h (1 Bft) S-SO 0,00 h 0,0 UV-I 0 W/m 15,3 C 16,1 C 3,5 km/h (1 Bft)
09.08.2017 01:00 25,4 C 15,7 C 54 % 95 % 1014,1 hPa 0,2 l/m 0,9 km/h (0 Bft) SO 0,00 h 0,0 UV-I 0 W/m 14,9 C 15,7 C 2,7 km/h (1 Bft)
09.08.2017 02:00 25,4 C 15,4 C 54 % 95 % 1014,2 hPa 0,0 l/m 0,0 km/h (0 Bft) N 0,00 h 0,0 UV-I 0 W/m 14,7 C 15,4 C 0,1 km/h (0 Bft)
09.08.2017 03:00 25,3 C 15,4 C 54 % 96 % 1014,2 hPa 0,0 l/m 0,8 km/h (0 Bft) S 0,00 h 0,0 UV-I 0 W/m 14,8 C 15,4 C 2,0 km/h (1 Bft)
09.08.2017 04:00 25,3 C 15,5 C 54 % 96 % 1014,5 hPa 0,0 l/m 1,5 km/h (1 Bft) S 0,00 h 0,0 UV-I 0 W/m 14,8 C 15,5 C 4,6 km/h (1 Bft)
09.08.2017 05:00 25,3 C 15,6 C 54 % 95 % 1014,4 hPa 0,0 l/m 0,0 km/h (0 Bft) W-SW 0,00 h 0,0 UV-I 0 W/m 14,8 C 15,6 C 0,1 km/h (0 Bft)
09.08.2017 06:00 25,3 C 15,7 C 54 % 95 % 1014,9 hPa 0,0 l/m 0,3 km/h (0 Bft) S 0,00 h 0,0 UV-I 11 W/m 14,9 C 15,7 C 0,9 km/h (0 Bft)
09.08.2017 07:00 25,3 C 15,9 C 55 % 95 % 1015,1 hPa 0,0 l/m 0,2 km/h (0 Bft) S 0,00 h 0,0 UV-I 26 W/m 15,1 C 15,9 C 0,7 km/h (0 Bft)
09.08.2017 08:00 25,5 C 16,4 C 55 % 94 % 1015,5 hPa 0,0 l/m 1,7 km/h (1 Bft) N 0,07 h 0,8 UV-I 84 W/m 15,5 C 16,2 C 1,6 km/h (1 Bft)
09.08.2017 09:00 25,6 C 17,6 C 56 % 88 % 1016,0 hPa 0,0 l/m 1,4 km/h (1 Bft) S 0,92 h 1,8 UV-I 276 W/m 15,5 C 17,6 C 3,7 km/h (1 Bft)
09.08.2017 10:00 25,7 C 19,1 C 55 % 79 % 1016,1 hPa 0,0 l/m 1,4 km/h (1 Bft) S 1,00 h 3,2 UV-I 512 W/m 15,3 C 19,1 C 3,8 km/h (1 Bft)
09.08.2017 11:00 25,4 C 20,8 C 52 % 68 % 1016,1 hPa 0,0 l/m 2,5 km/h (1 Bft) W-SW 1,00 h 4,5 UV-I 704 W/m 14,7 C 20,7 C 4,4 km/h (1 Bft)
09.08.2017 12:00 25,7 C 22,0 C 52 % 63 % 1015,9 hPa 0,0 l/m 3,5 km/h (1 Bft) SO 1,00 h 5,7 UV-I 800 W/m 14,7 C 21,9 C 6,8 km/h (2 Bft)
09.08.2017 13:00 25,7 C 22,7 C 51 % 60 % 1015,4 hPa 0,0 l/m 2,7 km/h (1 Bft) SO 1,00 h 5,9 UV-I 818 W/m 14,5 C 22,6 C 5,5 km/h (1 Bft)
09.08.2017 14:00 25,8 C 23,8 C 50 % 57 % 1015,0 hPa 0,0 l/m 1,3 km/h (1 Bft) O-SO 1,00 h 5,4 UV-I 735 W/m 14,7 C 23,8 C 2,3 km/h (1 Bft)
09.08.2017 15:00 25,8 C 23,5 C 51 % 58 % 1014,8 hPa 0,0 l/m 1,3 km/h (1 Bft) O-SO 1,00 h 3,4 UV-I 404 W/m 14,8 C 23,5 C 3,0 km/h (1 Bft)
09.08.2017 16:00 25,7 C 24,0 C 51 % 57 % 1014,6 hPa 0,0 l/m 2,3 km/h (1 Bft) N 1,00 h 2,6 UV-I 438 W/m 14,9 C 24,0 C 4,6 km/h (1 Bft)
09.08.2017 17:00 25,7 C 23,8 C 51 % 58 % 1014,4 hPa 0,0 l/m 1,9 km/h (1 Bft) N 0,95 h 1,3 UV-I 221 W/m 14,9 C 23,8 C 3,4 km/h (1 Bft)
09.08.2017 18:00 25,9 C 23,5 C 52 % 60 % 1014,1 hPa 0,0 l/m 2,4 km/h (1 Bft) N 0,35 h 0,8 UV-I 164 W/m 15,2 C 23,5 C 2,4 km/h (1 Bft)
09.08.2017 19:00 25,9 C 22,5 C 52 % 65 % 1014,1 hPa 0,0 l/m 0,9 km/h (0 Bft) N 0,00 h 0,0 UV-I 30 W/m 15,6 C 22,5 C 1,2 km/h (1 Bft)
09.08.2017 20:00 25,8 C 21,5 C 53 % 69 % 1014,2 hPa 0,0 l/m 2,5 km/h (1 Bft) N 0,00 h 0,0 UV-I 7 W/m 15,5 C 21,5 C 5,0 km/h (1 Bft)
09.08.2017 21:00 25,8 C 20,6 C 54 % 76 % 1014,4 hPa 0,2 l/m 2,1 km/h (1 Bft) N 0,00 h 0,0 UV-I 0 W/m 16,2 C 20,6 C 3,6 km/h (1 Bft)
09.08.2017 22:00 26,0 C 18,7 C 56 % 89 % 1013,9 hPa 1,0 l/m 1,4 km/h (1 Bft) N 0,00 h 0,0 UV-I 0 W/m 16,8 C 18,7 C 0,9 km/h (0 Bft)
09.08.2017 23:00 25,6 C 17,9 C 57 % 92 % 1013,9 hPa 1,4 l/m 3,6 km/h (1 Bft) O-NO 0,00 h 0,0 UV-I 0 W/m 16,6 C 17,3 C 7,3 km/h (2 Bft)
10.08.2017 00:00 25,7 C 17,2 C 57 % 94 % 1014,8 hPa 2,6 l/m 4,2 km/h (1 Bft) N 0,00 h 0,0 UV-I 0 W/m 16,2 C 16,7 C 6,1 km/h (2 Bft)
10.08.2017 01:00 25,5 C 16,6 C 57 % 95 % 1013,9 hPa 0,0 l/m 6,3 km/h (2 Bft) N 0,00 h 0,0 UV-I 0 W/m 15,8 C 15,8 C 10,0 km/h (2 Bft)
10.08.2017 02:00 25,5 C 16,5 C 57 % 96 % 1013,8 hPa 0,0 l/m 0,8 km/h (0 Bft) N 0,00 h 0,0 UV-I 0 W/m 15,8 C 16,5 C 2,1 km/h (1 Bft)
10.08.2017 03:00 25,4 C 16,2 C 57 % 96 % 1014,4 hPa 0,0 l/m 0,0 km/h (0 Bft) N 0,00 h 0,0 UV-I 0 W/m 15,5 C 16,2 C 0,1 km/h (0 Bft)
10.08.2017 04:00 25,4 C 15,4 C 57 % 95 % 1014,3 hPa 0,0 l/m 0,2 km/h (0 Bft) W-NW 0,00 h 0,0 UV-I 0 W/m 14,6 C 15,4 C 0,8 km/h (0 Bft)
10.08.2017 05:00 25,4 C 14,8 C 56 % 95 % 1014,6 hPa 0,0 l/m 0,4 km/h (0 Bft) NW 0,00 h 0,0 UV-I 0 W/m 14,0 C 14,8 C 1,4 km/h (1 Bft)
10.08.2017 06:00 25,3 C 14,7 C 56 % 95 % 1014,9 hPa 0,0 l/m 0,5 km/h (0 Bft) N-NW 0,00 h 0,0 UV-I 9 W/m 13,9 C 14,7 C 1,3 km/h (1 Bft)
10.08.2017 07:00 25,4 C 14,8 C 56 % 95 % 1015,4 hPa 0,0 l/m 1,1 km/h (1 Bft) N 0,00 h 0,0 UV-I 27 W/m 14,0 C 14,8 C 1,7 km/h (1 Bft)
10.08.2017 08:00 25,7 C 15,3 C 56 % 95 % 1015,4 hPa 0,0 l/m 2,3 km/h (1 Bft) N 0,07 h 0,7 UV-I 90 W/m 14,5 C 15,3 C 2,0 km/h (1 Bft)
10.08.2017 09:00 25,9 C 15,9 C 56 % 93 % 1015,4 hPa 0,0 l/m 3,7 km/h (1 Bft) N 0,00 h 0,8 UV-I 105 W/m 14,8 C 15,6 C 4,0 km/h (1 Bft)
10.08.2017 10:00 25,8 C 16,3 C 57 % 92 % 1015,8 hPa 0,0 l/m 3,4 km/h (1 Bft) N 0,40 h 1,2 UV-I 136 W/m 15,1 C 16,2 C 6,8 km/h (2 Bft)
10.08.2017 11:00 25,8 C 16,9 C 57 % 91 % 1015,8 hPa 0,0 l/m 2,7 km/h (1 Bft) N 0,27 h 1,3 UV-I 139 W/m 15,5 C 16,9 C 3,9 km/h (1 Bft)
10.08.2017 12:00 26,1 C 18,1 C 56 % 89 % 1015,3 hPa 0,0 l/m 1,5 km/h (1 Bft) N 1,00 h 2,6 UV-I 278 W/m 16,3 C 18,1 C 1,3 km/h (1 Bft)
10.08.2017 13:00 25,9 C 19,0 C 57 % 87 % 1015,2 hPa 0,0 l/m 3,3 km/h (1 Bft) N 0,62 h 1,8 UV-I 171 W/m 16,8 C 18,9 C 3,7 km/h (1 Bft)
10.08.2017 14:00 25,6 C 18,8 C 58 % 88 % 1014,8 hPa 0,0 l/m 4,0 km/h (1 Bft) N 0,60 h 1,6 UV-I 164 W/m 16,9 C 18,6 C 7,5 km/h (2 Bft)
10.08.2017 15:00 25,6 C 20,2 C 59 % 86 % 1014,6 hPa 0,0 l/m 4,0 km/h (1 Bft) N 1,00 h 2,5 UV-I 325 W/m 17,7 C 20,0 C 7,7 km/h (2 Bft)
10.08.2017 16:00 25,6 C 20,4 C 60 % 85 % 1013,8 hPa 0,0 l/m 7,3 km/h (2 Bft) N 0,45 h 1,4 UV-I 176 W/m 17,8 C 19,6 C 10,7 km/h (2 Bft)
10.08.2017 17:00 25,3 C 19,7 C 61 % 87 % 1013,5 hPa 0,0 l/m 6,2 km/h (2 Bft) N 0,00 h 0,7 UV-I 94 W/m 17,4 C 18,9 C 7,1 km/h (2 Bft)
10.08.2017 18:00 25,4 C 18,9 C 61 % 88 % 1013,0 hPa 0,0 l/m 0,0 km/h (0 Bft) N 0,00 h 0,0 UV-I 33 W/m 16,8 C 18,9 C 0,0 km/h (0 Bft)
10.08.2017 19:00 25,1 C 17,8 C 61 % 92 % 1013,3 hPa 4,0 l/m 0,1 km/h (0 Bft) N-NO 0,00 h 0,0 UV-I 8 W/m 16,5 C 17,8 C 0,4 km/h (0 Bft)
10.08.2017 20:00 25,6 C 17,0 C 60 % 95 % 1013,6 hPa 5,0 l/m 1,6 km/h (1 Bft) W-NW 0,00 h 0,0 UV-I 0 W/m 16,1 C 17,0 C 2,0 km/h (1 Bft)
10.08.2017 21:00 25,8 C 16,6 C 60 % 95 % 1014,2 hPa 0,6 l/m 0,4 km/h (0 Bft) SW 0,00 h 0,0 UV-I 0 W/m 15,9 C 16,6 C 1,3 km/h (1 Bft)
10.08.2017 22:00 25,8 C 16,0 C 60 % 96 % 1014,5 hPa 0,4 l/m 2,7 km/h (1 Bft) W-SW 0,00 h 0,0 UV-I 0 W/m 15,4 C 15,9 C 6,3 km/h (2 Bft)
10.08.2017 23:00 25,8 C 15,5 C 59 % 96 % 1014,7 hPa 0,2 l/m 0,0 km/h (0 Bft) N 0,00 h 0,0 UV-I 0 W/m 14,8 C 15,5 C 0,1 km/h (0 Bft)
11.08.2017 00:00 25,5 C 15,0 C 59 % 96 % 1014,7 hPa 0,0 l/m 0,5 km/h (0 Bft) SW 0,00 h 0,0 UV-I 0 W/m 14,4 C 15,0 C 2,6 km/h (1 Bft)
11.08.2017 01:00 25,1 C 14,9 C 58 % 96 % 1014,8 hPa 0,0 l/m 0,7 km/h (0 Bft) S 0,00 h 0,0 UV-I 0 W/m 14,3 C 14,9 C 3,1 km/h (1 Bft)
11.08.2017 02:00 25,1 C 14,8 C 58 % 96 % 1014,1 hPa 0,0 l/m 1,0 km/h (0 Bft) SW 0,00 h 0,0 UV-I 0 W/m 14,1 C 14,8 C 3,8 km/h (1 Bft)
11.08.2017 03:00 25,0 C 14,6 C 58 % 96 % 1013,7 hPa 0,0 l/m 0,3 km/h (0 Bft) S-SW 0,00 h 0,0 UV-I 0 W/m 14,0 C 14,6 C 2,0 km/h (1 Bft)
11.08.2017 04:00 24,8 C 14,3 C 57 % 96 % 1013,8 hPa 0,0 l/m 2,0 km/h (1 Bft) W-SW 0,00 h 0,0 UV-I 0 W/m 13,6 C 14,2 C 5,9 km/h (2 Bft)
11.08.2017 05:00 24,8 C 13,9 C 57 % 96 % 1013,6 hPa 0,0 l/m 2,3 km/h (1 Bft) SW 0,00 h 0,0 UV-I 0 W/m 13,3 C 13,8 C 5,7 km/h (1 Bft)
11.08.2017 06:00 24,9 C 13,8 C 57 % 96 % 1013,5 hPa 0,0 l/m 0,4 km/h (0 Bft) W-SW 0,00 h 0,0 UV-I 6 W/m 13,2 C 13,8 C 1,2 km/h (1 Bft)
11.08.2017 07:00 25,1 C 13,5 C 57 % 96 % 1013,6 hPa 0,2 l/m 0,4 km/h (0 Bft) W-SW 0,00 h 0,0 UV-I 18 W/m 12,8 C 13,5 C 1,7 km/h (1 Bft)
11.08.2017 08:00 25,4 C 13,5 C 57 % 97 % 1013,5 hPa 0,0 l/m 0,0 km/h (0 Bft) N 0,00 h 0,0 UV-I 27 W/m 13,0 C 13,5 C 0,2 km/h (0 Bft)
11.08.2017 09:00 25,6 C 13,7 C 58 % 97 % 1013,5 hPa 0,0 l/m 0,0 km/h (0 Bft) N 0,00 h 0,5 UV-I 50 W/m 13,2 C 13,7 C 0,0 km/h (0 Bft)
11.08.2017 10:00 25,5 C 13,8 C 58 % 96 % 1013,7 hPa 0,0 l/m 0,0 km/h (0 Bft) N 0,00 h 0,6 UV-I 36 W/m 13,2 C 13,8 C 0,1 km/h (0 Bft)
11.08.2017 11:00 25,4 C 14,1 C 58 % 96 % 1013,3 hPa 0,0 l/m 1,2 km/h (1 Bft) W-SW 0,05 h 0,9 UV-I 90 W/m 13,5 C 14,1 C 3,5 km/h (1 Bft)
11.08.2017 12:00 25,4 C 14,5 C 58 % 95 % 1012,8 hPa 0,0 l/m 0,3 km/h (0 Bft) W-SW 0,20 h 1,1 UV-I 98 W/m 13,8 C 14,5 C 1,2 km/h (1 Bft)
11.08.2017 13:00 25,5 C 14,6 C 57 % 94 % 1012,8 hPa 0,0 l/m 0,7 km/h (0 Bft) S 0,00 h 0,7 UV-I 64 W/m 13,6 C 14,6 C 2,1 km/h (1 Bft)
11.08.2017 14:00 25,4 C 15,1 C 57 % 92 % 1012,7 hPa 0,2 l/m 1,7 km/h (1 Bft) S 0,50 h 1,5 UV-I 171 W/m 13,8 C 15,1 C 4,6 km/h (1 Bft)
11.08.2017 15:00 25,0 C 14,9 C 55 % 91 % 1012,8 hPa 0,0 l/m 5,7 km/h (1 Bft) S 0,17 h 1,1 UV-I 126 W/m 13,5 C 14,3 C 7,9 km/h (2 Bft)
11.08.2017 16:00 25,4 C 15,0 C 55 % 90 % 1012,5 hPa 0,0 l/m 3,7 km/h (1 Bft) N 0,28 h 1,2 UV-I 128 W/m 13,4 C 14,7 C 2,2 km/h (1 Bft)
11.08.2017 17:00 25,3 C 14,4 C 55 % 91 % 1013,4 hPa 0,0 l/m 3,2 km/h (1 Bft) S-SW 0,00 h 0,5 UV-I 49 W/m 13,0 C 14,2 C 7,2 km/h (2 Bft)
11.08.2017 18:00 25,3 C 13,9 C 54 % 93 % 1013,1 hPa 0,0 l/m 1,4 km/h (1 Bft) N 0,00 h 0,0 UV-I 32 W/m 12,8 C 13,9 C 1,5 km/h (1 Bft)
11.08.2017 19:00 25,2 C 13,6 C 55 % 94 % 1013,1 hPa 1,0 l/m 1,6 km/h (1 Bft) S 0,00 h 0,0 UV-I 9 W/m 12,7 C 13,6 C 4,0 km/h (1 Bft)
11.08.2017 20:00 25,3 C 13,4 C 55 % 95 % 1013,3 hPa 0,0 l/m 3,0 km/h (1 Bft) SW 0,00 h 0,0 UV-I 5 W/m 12,6 C 13,2 C 5,3 km/h (1 Bft)
11.08.2017 21:00 25,5 C 13,3 C 55 % 96 % 1013,9 hPa 0,0 l/m 4,9 km/h (1 Bft) S 0,00 h 0,0 UV-I 0 W/m 12,6 C 12,9 C 9,9 km/h (2 Bft)
11.08.2017 22:00 25,7 C 13,2 C 56 % 96 % 1013,6 hPa 0,0 l/m 4,4 km/h (1 Bft) S-SW 0,00 h 0,0 UV-I 0 W/m 12,6 C 12,9 C 9,8 km/h (2 Bft)
11.08.2017 23:00 25,8 C 13,2 C 57 % 96 % 1013,7 hPa 0,0 l/m 2,7 km/h (1 Bft) W-SW 0,00 h 0,0 UV-I 0 W/m 12,5 C 13,0 C 6,5 km/h (2 Bft)
12.08.2017 00:00 25,6 C 12,9 C 57 % 96 % 1013,9 hPa 0,0 l/m 1,7 km/h (1 Bft) W-SW 0,00 h 0,0 UV-I 0 W/m 12,2 C 12,8 C 5,1 km/h (1 Bft)
12.08.2017 01:00 25,3 C 12,8 C 57 % 96 % 1014,4 hPa 0,0 l/m 3,2 km/h (1 Bft) W-SW 0,00 h 0,0 UV-I 0 W/m 12,1 C 12,6 C 8,5 km/h (2 Bft)
12.08.2017 02:00 25,2 C 12,5 C 57 % 95 % 1014,7 hPa 0,2 l/m 3,2 km/h (1 Bft) W-SW 0,00 h 0,0 UV-I 0 W/m 11,8 C 12,4 C 7,5 km/h (2 Bft)
12.08.2017 03:00 25,1 C 12,0 C 57 % 95 % 1015,2 hPa 0,0 l/m 1,1 km/h (1 Bft) W-SW 0,00 h 0,0 UV-I 0 W/m 11,2 C 12,0 C 3,9 km/h (1 Bft)
12.08.2017 04:00 25,1 C 11,8 C 57 % 95 % 1015,4 hPa 0,0 l/m 1,8 km/h (1 Bft) SW 0,00 h 0,0 UV-I 0 W/m 11,0 C 11,8 C 5,5 km/h (1 Bft)
12.08.2017 05:00 25,0 C 11,7 C 57 % 95 % 1015,1 hPa 0,0 l/m 0,2 km/h (0 Bft) S 0,00 h 0,0 UV-I 0 W/m 10,9 C 11,7 C 1,5 km/h (1 Bft)
12.08.2017 06:00 24,9 C 11,6 C 57 % 95 % 1015,2 hPa 0,0 l/m 0,6 km/h (0 Bft) S 0,00 h 0,0 UV-I 7 W/m 10,8 C 11,6 C 3,0 km/h (1 Bft)
12.08.2017 07:00 25,0 C 11,6 C 58 % 95 % 1015,5 hPa 0,0 l/m 2,5 km/h (1 Bft) W-SW 0,00 h 0,0 UV-I 16 W/m 10,8 C 11,4 C 7,2 km/h (2 Bft)
12.08.2017 08:00 25,1 C 11,7 C 58 % 94 % 1016,1 hPa 0,0 l/m 4,0 km/h (1 Bft) W-SW 0,00 h 0,6 UV-I 45 W/m 10,8 C 11,4 C 9,2 km/h (2 Bft)
12.08.2017 09:00 25,3 C 12,1 C 58 % 92 % 1016,8 hPa 0,0 l/m 4,4 km/h (1 Bft) W-SW 0,47 h 1,0 UV-I 161 W/m 10,8 C 11,7 C 7,7 km/h (2 Bft)
12.08.2017 10:00 25,5 C 13,3 C 58 % 85 % 1017,3 hPa 0,0 l/m 5,7 km/h (1 Bft) W-SW 1,00 h 1,9 UV-I 284 W/m 10,7 C 12,4 C 7,2 km/h (2 Bft)
12.08.2017 11:00 25,5 C 14,4 C 57 % 76 % 1017,4 hPa 0,0 l/m 6,2 km/h (2 Bft) W-SW 1,00 h 3,0 UV-I 392 W/m 10,1 C 13,7 C 11,1 km/h (2 Bft)
12.08.2017 12:00 25,4 C 13,9 C 56 % 75 % 1017,8 hPa 0,0 l/m 6,1 km/h (2 Bft) W-SW 1,00 h 2,4 UV-I 270 W/m 9,5 C 13,5 C 12,1 km/h (2 Bft)
12.08.2017 13:00 25,4 C 13,7 C 56 % 77 % 1018,3 hPa 0,0 l/m 2,6 km/h (1 Bft) W-SW 0,75 h 1,9 UV-I 214 W/m 9,8 C 13,7 C 6,5 km/h (2 Bft)
12.08.2017 14:00 25,5 C 14,9 C 54 % 75 % 1017,9 hPa 0,0 l/m 2,1 km/h (1 Bft) N 0,67 h 3,1 UV-I 321 W/m 10,5 C 14,9 C 3,9 km/h (1 Bft)
12.08.2017 15:00 25,2 C 14,9 C 52 % 79 % 1017,8 hPa 0,0 l/m 2,0 km/h (1 Bft) S-SW 0,52 h 2,0 UV-I 226 W/m 11,4 C 14,9 C 5,2 km/h (1 Bft)
12.08.2017 16:00 25,0 C 16,7 C 51 % 76 % 1017,6 hPa 0,0 l/m 3,0 km/h (1 Bft) SW 0,77 h 2,3 UV-I 344 W/m 12,4 C 16,6 C 7,3 km/h (2 Bft)
12.08.2017 17:00 25,0 C 16,8 C 52 % 73 % 1017,7 hPa 0,0 l/m 3,1 km/h (1 Bft) W-SW 0,27 h 1,1 UV-I 116 W/m 11,9 C 16,6 C 7,0 km/h (2 Bft)
12.08.2017 18:00 25,3 C 16,2 C 54 % 74 % 1018,0 hPa 0,0 l/m 3,9 km/h (1 Bft) W-SW 0,00 h 0,0 UV-I 30 W/m 11,5 C 16,0 C 8,8 km/h (2 Bft)
12.08.2017 19:00 25,2 C 15,2 C 55 % 80 % 1018,4 hPa 0,0 l/m 3,7 km/h (1 Bft) W-SW 0,00 h 0,0 UV-I 16 W/m 11,8 C 15,0 C 8,2 km/h (2 Bft)
12.08.2017 20:00 25,1 C 14,3 C 55 % 85 % 1018,9 hPa 0,0 l/m 2,7 km/h (1 Bft) W-SW 0,00 h 0,0 UV-I 5 W/m 11,8 C 14,2 C 7,0 km/h (2 Bft)
12.08.2017 21:00 25,1 C 13,4 C 55 % 91 % 1019,2 hPa 0,0 l/m 1,9 km/h (1 Bft) S-SW 0,00 h 0,0 UV-I 0 W/m 12,0 C 13,4 C 6,1 km/h (2 Bft)
12.08.2017 22:00 25,4 C 13,3 C 56 % 93 % 1019,0 hPa 0,0 l/m 2,3 km/h (1 Bft) W-SW 0,00 h 0,0 UV-I 0 W/m 12,2 C 13,1 C 5,6 km/h (1 Bft)
12.08.2017 23:00 25,4 C 13,4 C 56 % 94 % 1019,0 hPa 0,0 l/m 3,7 km/h (1 Bft) W-SW 0,00 h 0,0 UV-I 0 W/m 12,4 C 13,1 C 5,6 km/h (1 Bft)
13.08.2017 00:00 25,4 C 13,7 C 57 % 94 % 1019,0 hPa 0,2 l/m 2,3 km/h (1 Bft) W 0,00 h 0,0 UV-I 0 W/m 12,7 C 13,5 C 4,9 km/h (1 Bft)
13.08.2017 01:00 25,3 C 13,8 C 56 % 93 % 1018,4 hPa 0,0 l/m 2,8 km/h (1 Bft) W-SW 0,00 h 0,0 UV-I 0 W/m 12,7 C 13,8 C 5,0 km/h (1 Bft)
13.08.2017 02:00 25,2 C 13,9 C 56 % 93 % 1018,3 hPa 0,0 l/m 1,4 km/h (1 Bft) W-SW 0,00 h 0,0 UV-I 0 W/m 12,8 C 13,8 C 3,6 km/h (1 Bft)
13.08.2017 03:00 25,2 C 13,9 C 57 % 94 % 1018,6 hPa 0,0 l/m 0,7 km/h (0 Bft) SW 0,00 h 0,0 UV-I 0 W/m 12,9 C 13,9 C 2,1 km/h (1 Bft)
13.08.2017 04:00 25,2 C 13,9 C 57 % 95 % 1019,0 hPa 0,0 l/m 0,0 km/h (0 Bft) S 0,00 h 0,0 UV-I 0 W/m 13,0 C 13,9 C 0,2 km/h (0 Bft)
13.08.2017 05:00 25,1 C 13,8 C 57 % 95 % 1019,0 hPa 0,0 l/m 0,0 km/h (0 Bft) S 0,00 h 0,0 UV-I 0 W/m 13,0 C 13,8 C 0,2 km/h (0 Bft)
13.08.2017 06:00 25,1 C 13,7 C 57 % 96 % 1019,2 hPa 0,2 l/m 0,3 km/h (0 Bft) S 0,00 h 0,0 UV-I 10 W/m 13,1 C 13,7 C 1,1 km/h (1 Bft)
13.08.2017 07:00 25,2 C 13,8 C 57 % 97 % 1019,4 hPa 0,0 l/m 0,5 km/h (0 Bft) S 0,00 h 0,0 UV-I 17 W/m 13,2 C 13,8 C 1,7 km/h (1 Bft)
13.08.2017 08:00 25,3 C 13,9 C 56 % 96 % 1019,7 hPa 0,0 l/m 1,5 km/h (1 Bft) N 0,00 h 0,0 UV-I 34 W/m 13,3 C 13,9 C 2,3 km/h (1 Bft)
13.08.2017 09:00 25,2 C 14,2 C 55 % 96 % 1020,0 hPa 0,0 l/m 3,2 km/h (1 Bft) S 0,00 h 0,6 UV-I 66 W/m 13,5 C 14,0 C 3,4 km/h (1 Bft)
13.08.2017 10:00 25,2 C 14,4 C 55 % 95 % 1020,1 hPa 0,0 l/m 3,4 km/h (1 Bft) S 0,22 h 1,0 UV-I 115 W/m 13,7 C 14,1 C 5,1 km/h (1 Bft)
13.08.2017 11:00 25,2 C 15,1 C 55 % 94 % 1020,2 hPa 0,0 l/m 4,2 km/h (1 Bft) S-SW 0,38 h 1,4 UV-I 164 W/m 14,1 C 15,0 C 6,5 km/h (2 Bft)
13.08.2017 12:00 25,0 C 16,4 C 56 % 90 % 1020,0 hPa 0,0 l/m 2,4 km/h (1 Bft) W-SW 0,93 h 2,4 UV-I 244 W/m 14,8 C 16,3 C 4,8 km/h (1 Bft)
13.08.2017 13:00 25,0 C 17,4 C 56 % 87 % 1020,0 hPa 0,0 l/m 4,0 km/h (1 Bft) W-SW 0,77 h 2,5 UV-I 244 W/m 15,1 C 17,1 C 7,1 km/h (2 Bft)
13.08.2017 14:00 25,0 C 18,7 C 57 % 81 % 1019,9 hPa 0,0 l/m 6,2 km/h (2 Bft) W-SW 1,00 h 3,3 UV-I 339 W/m 15,4 C 18,1 C 10,0 km/h (2 Bft)
13.08.2017 15:00 25,1 C 19,4 C 57 % 79 % 1019,8 hPa 0,0 l/m 1,3 km/h (1 Bft) W-SW 0,88 h 2,8 UV-I 320 W/m 15,7 C 19,4 C 4,0 km/h (1 Bft)
13.08.2017 16:00 25,2 C 20,5 C 57 % 75 % 1019,8 hPa 0,0 l/m 5,1 km/h (1 Bft) W-SW 0,92 h 2,5 UV-I 446 W/m 15,8 C 20,2 C 10,2 km/h (2 Bft)
13.08.2017 17:00 25,1 C 20,7 C 56 % 72 % 1019,7 hPa 0,0 l/m 4,9 km/h (1 Bft) SW 0,82 h 1,8 UV-I 387 W/m 15,5 C 20,5 C 10,0 km/h (2 Bft)
13.08.2017 18:00 24,7 C 20,2 C 55 % 71 % 1019,6 hPa 0,0 l/m 4,8 km/h (1 Bft) W-SW 0,37 h 1,1 UV-I 127 W/m 14,8 C 20,0 C 7,5 km/h (2 Bft)
13.08.2017 19:00 24,6 C 19,1 C 54 % 73 % 1019,9 hPa 0,0 l/m 2,3 km/h (1 Bft) W-NW 0,00 h 0,0 UV-I 21 W/m 14,1 C 19,1 C 4,4 km/h (1 Bft)
13.08.2017 20:00 25,0 C 17,5 C 55 % 81 % 1020,4 hPa 0,0 l/m 0,5 km/h (0 Bft) N 0,00 h 0,0 UV-I 10 W/m 14,1 C 17,5 C 0,1 km/h (0 Bft)
13.08.2017 21:00 25,2 C 16,2 C 56 % 87 % 1021,0 hPa 0,0 l/m 0,0 km/h (0 Bft) N 0,00 h 0,0 UV-I 0 W/m 13,9 C 16,2 C 0,0 km/h (0 Bft)
13.08.2017 22:00 25,3 C 15,2 C 56 % 87 % 1021,3 hPa 0,0 l/m 0,0 km/h (0 Bft) N 0,00 h 0,0 UV-I 0 W/m 13,1 C 15,2 C 0,0 km/h (0 Bft)
13.08.2017 23:00 25,4 C 13,8 C 56 % 90 % 1021,5 hPa 0,0 l/m 0,0 km/h (0 Bft) N 0,00 h 0,0 UV-I 0 W/m 12,2 C 13,8 C 0,0 km/h (0 Bft)
Min-Datum _ 07.08.17 08.08.17 07.08.17 07.08.17 08.08.17 - 07.08.17 - - - - 07.08.17 12.08.17 07.08.17
_ Min-Zeit 10:10 07:57 16:42 17:01 16:48 - 00:00 - - - - 19:45 08:47 00:00
Minimum _ 24,4 C 0,0 C 35 % 32 % 1008,9 hPa - 0,0 km/h (0 Bft) - - - - 6,4 C 8,1 C 0,0 km/h (0 Bft)
Max-Datum _ 08.08.17 08.08.17 10.08.17 11.08.17 07.08.17 10.08.17 09.08.17 - 07.08.17 09.08.17 07.08.17 10.08.17 08.08.17 09.08.17
_ Max-Zeit 18:25 16:35 16:31 07:54 00:33 20:02 23:54 - 11:19 13:15 12:26 16:03 16:35 23:54
Maximum _ 26,9 C 28,7 C 61 % 97 % 1022,5 hPa 5,0 l/m 30,6 km/h
O-NO (5 Bft)
- 0,03 h 6,7 UV-I 1032 W/m 18,2 C 28,7 C 38,6 km/h
O-NO (5 Bft)
Durchschnitt _ 25,4 C 16,7 C 53 % 81 % 1015,8 hPa #27,2 l/m 2,3 km/h (1 Bft) N #47:57 h 2,4 UV-I 243 W/m 13,1 C 16,6 C 4,4 km/h (1 Bft)